createdAt,value
2022-11-05T00:01:15.927Z,99421.64
2022-11-05T00:04:03.245Z,99425.91
2022-11-05T00:06:50.526Z,99429.62
2022-11-05T00:09:32.852Z,99428.02
2022-11-05T00:12:32.237Z,99430.21
2022-11-05T00:15:19.241Z,99430.23
2022-11-05T00:17:47.776Z,99431.07
2022-11-05T00:20:16.419Z,99435.58
2022-11-05T00:23:03.261Z,99435.55
2022-11-05T00:25:31.711Z,99436.80
2022-11-05T00:28:02.924Z,99436.95
2022-11-05T00:30:31.446Z,99439.52
2022-11-05T00:33:05.001Z,99433.42
2022-11-05T00:35:33.352Z,99438.08
2022-11-05T00:38:01.980Z,99436.90
2022-11-05T00:40:30.771Z,99440.95
2022-11-05T00:43:17.671Z,99438.32
2022-11-05T00:45:46.180Z,99433.48
2022-11-05T00:48:33.096Z,99430.13
2022-11-05T00:51:01.534Z,99428.33
2022-11-05T00:53:30.017Z,99432.46
2022-11-05T00:55:58.823Z,99431.61
2022-11-05T00:58:29.940Z,99425.21
2022-11-05T01:01:00.449Z,99421.30
2022-11-05T01:03:33.195Z,99415.19
2022-11-05T01:06:17.012Z,99420.06
2022-11-05T01:08:46.691Z,99419.23
2022-11-05T01:11:37.416Z,99417.41
2022-11-05T01:14:10.989Z,99411.88
2022-11-05T01:16:40.449Z,99417.41
2022-11-05T01:19:10.859Z,99422.41
2022-11-05T01:21:39.339Z,99418.80
2022-11-05T01:24:08.496Z,99416.48
2022-11-05T01:26:36.914Z,99407.27
2022-11-05T01:29:05.326Z,99410.88
2022-11-05T01:31:33.797Z,99410.61
2022-11-05T01:34:02.301Z,99405.94
2022-11-05T01:36:30.756Z,99408.68
2022-11-05T01:38:59.440Z,99412.49
2022-11-05T01:41:28.023Z,99419.89
2022-11-05T01:43:59.842Z,99415.31
2022-11-05T01:46:44.419Z,99414.25
2022-11-05T01:49:17.528Z,99416.78
2022-11-05T01:51:46.705Z,99410.60
2022-11-05T01:54:23.788Z,99413.70
2022-11-05T01:57:02.715Z,99418.58
2022-11-05T01:59:46.269Z,99422.16
2022-11-05T02:02:14.950Z,99417.88
2022-11-05T02:04:54.173Z,99415.42
2022-11-05T02:07:25.024Z,99419.77
2022-11-05T02:10:11.228Z,99422.00
2022-11-05T02:12:43.896Z,99422.27
2022-11-05T02:15:15.952Z,99428.92
2022-11-05T02:18:15.556Z,99428.98
2022-11-05T02:20:57.448Z,99429.83
2022-11-05T02:24:01.477Z,99430.59
2022-11-05T02:27:00.581Z,99431.44
2022-11-05T02:29:56.276Z,99433.64
2022-11-05T02:33:03.780Z,99432.84
2022-11-05T02:35:41.273Z,99431.86
2022-11-05T02:38:17.031Z,99427.98
2022-11-05T02:41:25.772Z,99432.98
2022-11-05T02:44:10.013Z,99433.65
2022-11-05T02:46:44.433Z,99433.88
2022-11-05T02:49:52.648Z,99436.25
2022-11-05T02:52:43.119Z,99436.58
2022-11-05T02:55:26.825Z,99440.95
2022-11-05T02:57:55.647Z,99445.46
2022-11-05T03:00:52.911Z,99441.85
2022-11-05T03:03:33.287Z,99438.48
2022-11-05T03:06:22.860Z,99437.81
2022-11-05T03:09:23.184Z,99442.55
2022-11-05T03:12:21.711Z,99436.18
2022-11-05T03:15:08.665Z,99444.23
2022-11-05T03:18:14.440Z,99440.80
2022-11-05T03:20:48.961Z,99438.19
2022-11-05T03:23:34.276Z,99436.48
2022-11-05T03:26:33.847Z,99436.48
2022-11-05T03:29:15.826Z,99443.52
2022-11-05T03:31:47.892Z,99446.67
2022-11-05T03:34:20.169Z,99445.52
2022-11-05T03:36:53.870Z,99444.55
2022-11-05T03:39:33.195Z,99442.27
2022-11-05T03:42:05.372Z,99444.18
2022-11-05T03:44:39.804Z,99438.77
2022-11-05T03:47:15.544Z,99440.39
2022-11-05T03:50:20.580Z,99440.83
2022-11-05T03:53:03.588Z,99435.06
2022-11-05T03:56:07.005Z,99436.68
2022-11-05T03:58:36.588Z,99449.38
2022-11-05T04:01:05.557Z,99453.11
2022-11-05T04:03:36.654Z,99454.48
2022-11-05T04:06:26.660Z,99456.14
2022-11-05T04:09:14.049Z,99455.63
2022-11-05T04:12:01.059Z,99459.05
2022-11-05T04:14:31.080Z,99459.48
2022-11-05T04:17:09.840Z,99460.42
2022-11-05T04:20:03.188Z,99462.75
2022-11-05T04:22:53.058Z,99461.77
2022-11-05T04:25:22.638Z,99466.08
2022-11-05T04:27:51.556Z,99463.95
2022-11-05T04:30:20.922Z,99462.23
2022-11-05T04:33:11.594Z,99461.89
2022-11-05T04:35:44.230Z,99465.02
2022-11-05T04:38:16.391Z,99465.48
2022-11-05T04:40:47.077Z,99464.45
2022-11-05T04:43:19.361Z,99461.48
2022-11-05T04:45:48.200Z,99452.11
2022-11-05T04:48:16.578Z,99450.87
2022-11-05T04:50:45.060Z,99457.67
2022-11-05T04:53:14.667Z,99460.09
2022-11-05T04:55:43.270Z,99460.58
2022-11-05T04:58:11.834Z,99458.15
2022-11-05T05:00:40.409Z,99464.25
2022-11-05T05:03:09.310Z,99464.44
2022-11-05T05:05:38.098Z,99464.40
2022-11-05T05:08:06.672Z,99465.38
2022-11-05T05:10:35.375Z,99470.36
2022-11-05T05:13:03.934Z,99473.39
2022-11-05T05:15:32.510Z,99471.27
2022-11-05T05:18:00.953Z,99473.30
2022-11-05T05:20:48.027Z,99472.27
2022-11-05T05:23:16.598Z,99477.73
2022-11-05T05:25:45.172Z,99478.23
2022-11-05T05:28:13.675Z,99484.15
2022-11-05T05:30:42.126Z,99487.62
2022-11-05T05:33:10.974Z,99488.80
2022-11-05T05:35:39.628Z,99493.45
2022-11-05T05:38:08.107Z,99494.48
2022-11-05T05:40:36.588Z,99498.82
2022-11-05T05:43:05.068Z,99506.09
2022-11-05T05:45:35.751Z,99511.70
2022-11-05T05:48:04.485Z,99507.94
2022-11-05T05:50:32.896Z,99509.93
2022-11-05T05:53:09.734Z,99507.80
2022-11-05T05:55:38.467Z,99514.27
2022-11-05T05:58:08.706Z,99511.58
2022-11-05T06:00:39.064Z,99518.46
2022-11-05T06:03:07.594Z,99529.79
2022-11-05T06:05:36.334Z,99535.89
2022-11-05T06:08:05.421Z,99546.63
2022-11-05T06:10:34.600Z,99549.05
2022-11-05T06:13:03.445Z,99550.63
2022-11-05T06:15:35.706Z,99555.11
2022-11-05T06:18:04.595Z,99562.98
2022-11-05T06:20:32.984Z,99561.09
2022-11-05T06:23:01.348Z,99565.48
2022-11-05T06:25:30.017Z,99567.20
2022-11-05T06:27:58.674Z,99568.52
2022-11-05T06:30:27.297Z,99571.48
2022-11-05T06:32:55.877Z,99570.85
2022-11-05T06:35:24.229Z,99567.81
2022-11-05T06:37:52.669Z,99573.05
2022-11-05T06:40:21.031Z,99568.34
2022-11-05T06:42:53.156Z,99569.44
2022-11-05T06:45:22.187Z,99562.59
2022-11-05T06:47:57.279Z,99580.30
2022-11-05T06:50:27.683Z,99582.80
2022-11-05T06:53:01.074Z,99589.98
2022-11-05T06:55:31.335Z,99591.98
2022-11-05T06:57:59.900Z,99598.81
2022-11-05T07:00:28.606Z,99599.51
2022-11-05T07:03:05.295Z,99600.18
2022-11-05T07:05:36.830Z,99599.62
2022-11-05T07:08:05.750Z,99600.31
2022-11-05T07:10:34.376Z,99600.30
2022-11-05T07:13:07.710Z,99596.64
2022-11-05T07:15:37.905Z,99600.60
2022-11-05T07:18:09.590Z,99601.14
2022-11-05T07:20:38.131Z,99599.58
2022-11-05T07:23:11.942Z,99597.10
2022-11-05T07:25:42.692Z,99599.75
2022-11-05T07:28:11.535Z,99600.85
2022-11-05T07:30:40.220Z,99607.51
2022-11-05T07:33:09.900Z,99610.27
2022-11-05T07:35:38.674Z,99607.08
2022-11-05T07:38:07.326Z,99607.81
2022-11-05T07:40:35.854Z,99601.43
2022-11-05T07:43:04.383Z,99604.67
2022-11-05T07:45:33.021Z,99604.00
2022-11-05T07:48:03.762Z,99597.76
2022-11-05T07:50:36.755Z,99605.70
2022-11-05T07:53:13.312Z,99607.08
2022-11-05T07:55:42.858Z,99609.89
2022-11-05T07:58:11.545Z,99606.23
2022-11-05T08:00:40.344Z,99605.36
2022-11-05T08:03:14.410Z,99601.10
2022-11-05T08:05:47.204Z,99602.23
2022-11-05T08:08:19.288Z,99598.35
2022-11-05T08:10:48.052Z,99599.88
2022-11-05T08:13:17.030Z,99597.15
2022-11-05T08:15:45.890Z,99602.23
2022-11-05T08:18:17.220Z,99605.54
2022-11-05T08:20:47.275Z,99604.63
2022-11-05T08:23:16.209Z,99599.89
2022-11-05T08:25:44.912Z,99597.58
2022-11-05T08:28:14.160Z,99593.45
2022-11-05T08:30:43.023Z,99602.15
2022-11-05T08:33:13.708Z,99608.20
2022-11-05T08:35:42.507Z,99602.45
2022-11-05T08:38:14.971Z,99608.80
2022-11-05T08:40:46.100Z,99612.29
2022-11-05T08:43:15.007Z,99614.48
2022-11-05T08:45:43.762Z,99613.75
2022-11-05T08:48:15.786Z,99609.20
2022-11-05T08:50:46.720Z,99607.77
2022-11-05T08:53:16.147Z,99598.91
2022-11-05T08:55:47.827Z,99606.60
2022-11-05T08:58:17.508Z,99605.01
2022-11-05T09:00:47.782Z,99605.52
2022-11-05T09:03:16.870Z,99606.81
2022-11-05T09:05:45.537Z,99609.31
2022-11-05T09:08:17.766Z,99609.89
2022-11-05T09:10:48.193Z,99611.30
2022-11-05T09:13:19.713Z,99610.45
2022-11-05T09:15:50.155Z,99617.07
2022-11-05T09:18:20.296Z,99624.66
2022-11-05T09:20:49.022Z,99625.67
2022-11-05T09:23:17.924Z,99631.57
2022-11-05T09:25:46.958Z,99630.94
2022-11-05T09:28:19.188Z,99622.86
2022-11-05T09:30:51.025Z,99626.91
2022-11-05T09:33:23.681Z,99629.79
2022-11-05T09:35:53.746Z,99628.15
2022-11-05T09:38:22.355Z,99628.36
2022-11-05T09:41:29.538Z,99630.05
2022-11-05T09:44:03.731Z,99632.95
2022-11-05T09:46:55.277Z,99625.35
2022-11-05T09:49:42.972Z,99622.89
2022-11-05T09:52:18.992Z,99624.25
2022-11-05T09:54:48.912Z,99628.40
2022-11-05T09:57:47.184Z,99630.16
2022-11-05T10:00:17.533Z,99633.92
2022-11-05T10:02:55.854Z,99632.86
2022-11-05T10:05:28.767Z,99636.16
2022-11-05T10:08:12.892Z,99639.04
2022-11-05T10:11:10.685Z,99643.59
2022-11-05T10:14:00.343Z,99639.69
2022-11-05T10:16:34.039Z,99638.20
2022-11-05T10:19:24.688Z,99638.70
2022-11-05T10:22:18.663Z,99646.63
2022-11-05T10:24:50.672Z,99648.98
2022-11-05T10:27:39.095Z,99652.05
2022-11-05T10:30:24.907Z,99643.65
2022-11-05T10:32:57.862Z,99648.09
2022-11-05T10:35:30.995Z,99654.19
2022-11-05T10:37:59.738Z,99652.39
2022-11-05T10:41:06.599Z,99655.78
2022-11-05T10:43:47.835Z,99653.46
2022-11-05T10:46:36.382Z,99654.63
2022-11-05T10:49:10.671Z,99653.19
2022-11-05T10:51:39.657Z,99656.64
2022-11-05T10:54:21.415Z,99654.27
2022-11-05T10:56:50.661Z,99651.14
2022-11-05T10:59:28.319Z,99652.33
2022-11-05T11:02:26.097Z,99654.98
2022-11-05T11:04:58.105Z,99653.60
2022-11-05T11:07:27.291Z,99648.11
2022-11-05T11:09:55.813Z,99649.33
2022-11-05T11:12:31.032Z,99653.00
2022-11-05T11:15:24.591Z,99650.88
2022-11-05T11:17:55.537Z,99654.35
2022-11-05T11:20:32.759Z,99657.05
2022-11-05T11:23:01.189Z,99657.80
2022-11-05T11:25:42.284Z,99657.75
2022-11-05T11:28:29.747Z,99658.51
2022-11-05T11:31:07.136Z,99657.74
2022-11-05T11:33:38.074Z,99663.98
2022-11-05T11:36:11.866Z,99665.09
2022-11-05T11:38:41.516Z,99665.27
2022-11-05T11:41:28.156Z,99660.67
2022-11-05T11:44:07.160Z,99660.84
2022-11-05T11:46:36.183Z,99660.52
2022-11-05T11:49:07.325Z,99661.97
2022-11-05T11:51:49.817Z,99666.21
2022-11-05T11:54:28.843Z,99672.30
2022-11-05T11:56:57.673Z,99668.89
2022-11-05T11:59:53.773Z,99667.36
2022-11-05T12:02:33.796Z,99671.38
2022-11-05T12:05:18.023Z,99673.21
2022-11-05T12:07:58.243Z,99672.60
2022-11-05T12:11:03.248Z,99669.82
2022-11-05T12:14:20.537Z,99669.36
2022-11-05T12:17:14.604Z,99672.33
2022-11-05T12:20:16.940Z,99680.23
2022-11-05T12:23:45.389Z,99679.98
2022-11-05T12:26:47.812Z,99679.61
2022-11-05T12:29:59.004Z,99680.69
2022-11-05T12:32:42.216Z,99682.16
2022-11-05T12:35:57.583Z,99683.98
2022-11-05T12:38:41.107Z,99687.63
2022-11-05T12:41:26.116Z,99689.16
2022-11-05T12:44:07.275Z,99687.20
2022-11-05T12:47:08.692Z,99690.21
2022-11-05T12:50:05.152Z,99695.77
2022-11-05T12:53:15.201Z,99695.10
2022-11-05T12:55:49.629Z,99696.30
2022-11-05T12:58:35.874Z,99690.05
2022-11-05T13:01:19.861Z,99691.80
2022-11-05T13:03:57.888Z,99697.54
2022-11-05T13:06:54.271Z,99700.67
2022-11-05T13:09:34.728Z,99702.38
2022-11-05T13:12:13.197Z,99703.48
2022-11-05T13:14:52.483Z,99703.88
2022-11-05T13:17:29.869Z,99706.35
2022-11-05T13:20:17.508Z,99705.90
2022-11-05T13:23:14.932Z,99708.64
2022-11-05T13:25:53.659Z,99710.95
2022-11-05T13:28:33.986Z,99713.31
2022-11-05T13:31:06.875Z,99711.30
2022-11-05T13:33:40.446Z,99712.66
2022-11-05T13:36:39.271Z,99711.23
2022-11-05T13:39:25.440Z,99713.98
2022-11-05T13:42:16.161Z,99712.63
2022-11-05T13:45:25.296Z,99716.30
2022-11-05T13:48:05.807Z,99714.73
2022-11-05T13:51:14.260Z,99722.04
2022-11-05T13:53:51.938Z,99729.30
2022-11-05T13:56:36.121Z,99731.63
2022-11-05T13:59:33.889Z,99734.86
2022-11-05T14:02:22.277Z,99737.16
2022-11-05T14:05:01.230Z,99737.81
2022-11-05T14:07:38.246Z,99735.42
2022-11-05T14:10:41.876Z,99738.67
2022-11-05T14:13:34.129Z,99745.10
2022-11-05T14:16:17.486Z,99747.77
2022-11-05T14:18:53.654Z,99744.05
2022-11-05T14:21:28.198Z,99747.94
2022-11-05T14:24:19.656Z,99751.95
2022-11-05T14:27:03.053Z,99750.56
2022-11-05T14:29:44.033Z,99748.39
2022-11-05T14:32:21.229Z,99759.69
2022-11-05T14:35:04.294Z,99759.17
2022-11-05T14:37:39.636Z,99764.30
2022-11-05T14:40:36.526Z,99764.30
2022-11-05T14:43:14.683Z,99765.31
2022-11-05T14:46:01.796Z,99765.48
2022-11-05T14:48:59.429Z,99767.46
2022-11-05T14:51:38.619Z,99769.85
2022-11-05T14:54:30.544Z,99771.23
2022-11-05T14:57:02.329Z,99772.85
2022-11-05T14:59:35.087Z,99775.44
2022-11-05T15:02:03.852Z,99776.59
2022-11-05T15:04:37.880Z,99778.96
2022-11-05T15:07:06.455Z,99780.16
2022-11-05T15:09:46.941Z,99785.48
2022-11-05T15:12:44.759Z,99786.09
2022-11-05T15:15:21.425Z,99785.81
2022-11-05T15:18:11.941Z,99788.45
2022-11-05T15:20:47.026Z,99796.46
2022-11-05T15:23:24.363Z,99795.48
2022-11-05T15:26:05.392Z,99799.52
2022-11-05T15:28:47.490Z,99799.02
2022-11-05T15:31:16.264Z,99795.82
2022-11-05T15:33:47.947Z,99802.95
2022-11-05T15:36:29.419Z,99805.12
2022-11-05T15:39:27.843Z,99809.21
2022-11-05T15:41:47.986Z,99806.07
2022-11-05T15:44:48.395Z,99809.41
2022-11-05T15:47:36.866Z,99813.29
2022-11-05T15:50:15.015Z,99820.54
2022-11-05T15:52:55.455Z,99818.16
2022-11-05T15:55:27.343Z,99828.39
2022-11-05T15:58:07.191Z,99830.48
2022-11-05T16:00:36.972Z,99836.75
2022-11-05T16:03:19.180Z,99838.92
2022-11-05T16:05:48.852Z,99840.43
2022-11-05T16:08:21.159Z,99843.55
2022-11-05T16:10:59.741Z,99844.52
2022-11-05T16:13:33.305Z,99849.39
2022-11-05T16:16:06.422Z,99854.80
2022-11-05T16:18:40.743Z,99858.70
2022-11-05T16:21:17.792Z,99861.00
2022-11-05T16:23:56.878Z,99866.20
2022-11-05T16:27:03.848Z,99863.38
2022-11-05T16:29:50.860Z,99867.89
2022-11-05T16:32:31.394Z,99869.83
2022-11-05T16:35:04.905Z,99875.55
2022-11-05T16:37:49.201Z,99872.98
2022-11-05T16:40:24.268Z,99876.16
2022-11-05T16:42:54.678Z,99879.92
2022-11-05T16:45:25.612Z,99890.30
2022-11-05T16:47:54.342Z,99895.33
2022-11-05T16:50:30.740Z,99893.05
2022-11-05T16:52:59.634Z,99898.00
2022-11-05T16:55:30.169Z,99905.06
2022-11-05T16:57:59.378Z,99904.71
2022-11-05T17:00:28.228Z,99909.84
2022-11-05T17:02:57.083Z,99910.61
2022-11-05T17:05:30.165Z,99914.93
2022-11-05T17:08:00.999Z,99920.13
2022-11-05T17:10:30.264Z,99920.91
2022-11-05T17:12:59.092Z,99920.02
2022-11-05T17:15:37.074Z,99918.92
2022-11-05T17:18:06.600Z,99923.65
2022-11-05T17:20:41.123Z,99924.86
2022-11-05T17:23:16.649Z,99928.29
2022-11-05T17:25:49.350Z,99928.15
2022-11-05T17:28:19.609Z,99929.89
2022-11-05T17:30:52.376Z,99933.78
2022-11-05T17:33:23.384Z,99934.27
2022-11-05T17:35:53.141Z,99936.09
2022-11-05T17:38:24.251Z,99938.02
2022-11-05T17:40:53.809Z,99942.49
2022-11-05T17:43:22.743Z,99945.14
2022-11-05T17:45:53.088Z,99944.26
2022-11-05T17:48:21.916Z,99939.69
2022-11-05T17:50:51.360Z,99947.14
2022-11-05T17:53:20.598Z,99947.11
2022-11-05T17:55:49.525Z,99947.48
2022-11-05T17:58:18.152Z,99948.48
2022-11-05T18:00:48.486Z,99947.94
2022-11-05T18:03:17.061Z,99945.77
2022-11-05T18:05:45.992Z,99940.92
2022-11-05T18:08:14.778Z,99949.59
2022-11-05T18:10:43.707Z,99955.71
2022-11-05T18:13:12.640Z,99957.39
2022-11-05T18:15:41.600Z,99958.76
2022-11-05T18:18:10.591Z,99957.66
2022-11-05T18:20:39.643Z,99959.92
2022-11-05T18:23:08.368Z,99961.04
2022-11-05T18:25:37.115Z,99963.44
2022-11-05T18:28:06.003Z,99968.90
2022-11-05T18:30:34.942Z,99976.19
2022-11-05T18:33:03.786Z,99987.62
2022-11-05T18:35:32.609Z,99987.29
2022-11-05T18:38:01.369Z,99990.41
2022-11-05T18:40:30.046Z,99986.95
2022-11-05T18:42:58.671Z,99995.31
2022-11-05T18:45:29.955Z,99999.93
2022-11-05T18:48:03.583Z,99996.61
2022-11-05T18:50:32.201Z,100002.39
2022-11-05T18:53:00.949Z,100006.32
2022-11-05T18:55:29.884Z,100010.48
2022-11-05T18:57:58.629Z,100013.86
2022-11-05T19:00:28.166Z,100013.44
2022-11-05T19:02:57.033Z,100013.86
2022-11-05T19:05:29.978Z,100020.58
2022-11-05T19:07:59.389Z,100017.88
2022-11-05T19:10:28.546Z,100021.40
2022-11-05T19:12:57.204Z,100025.03
2022-11-05T19:15:25.979Z,100033.98
2022-11-05T19:17:54.869Z,100037.52
2022-11-05T19:20:23.657Z,100037.05
2022-11-05T19:22:52.289Z,100038.16
2022-11-05T19:25:20.974Z,100046.73
2022-11-05T19:27:49.647Z,100047.55
2022-11-05T19:30:18.343Z,100050.91
2022-11-05T19:32:47.186Z,100053.21
2022-11-05T19:35:16.386Z,100061.60
2022-11-05T19:37:45.522Z,100069.02
2022-11-05T19:40:14.338Z,100070.17
2022-11-05T19:42:43.144Z,100074.42
2022-11-05T19:45:38.175Z,100076.35
2022-11-05T19:48:00.806Z,100079.56
2022-11-05T19:50:29.490Z,100082.61
2022-11-05T19:52:58.589Z,100086.48
2022-11-05T19:55:28.058Z,100091.12
2022-11-05T19:57:56.709Z,100090.75
2022-11-05T20:00:25.466Z,100092.69
2022-11-05T20:02:54.275Z,100094.30
2022-11-05T20:05:23.243Z,100091.95
2022-11-05T20:07:53.259Z,100093.96
2022-11-05T20:10:22.405Z,100094.95
2022-11-05T20:12:51.489Z,100094.05
2022-11-05T20:15:20.340Z,100095.86
2022-11-05T20:17:53.143Z,100093.13
2022-11-05T20:20:22.323Z,100095.98
2022-11-05T20:22:53.192Z,100096.91
2022-11-05T20:25:21.924Z,100099.20
2022-11-05T20:27:50.630Z,100101.15
2022-11-05T20:30:20.306Z,100100.38
2022-11-05T20:32:53.795Z,100101.73
2022-11-05T20:35:24.121Z,100104.67
2022-11-05T20:37:54.217Z,100109.42
2022-11-05T20:40:23.421Z,100112.16
2022-11-05T20:42:52.163Z,100111.77
2022-11-05T20:45:20.953Z,100112.59
2022-11-05T20:47:49.739Z,100115.06
2022-11-05T20:50:18.679Z,100115.77
2022-11-05T20:52:47.417Z,100121.74
2022-11-05T20:55:16.308Z,100120.87
2022-11-05T20:57:45.308Z,100123.54
2022-11-05T21:00:15.180Z,100124.10
2022-11-05T21:02:44.141Z,100122.31
2022-11-05T21:05:13.099Z,100124.31
2022-11-05T21:07:41.681Z,100125.30
2022-11-05T21:10:10.411Z,100124.98
2022-11-05T21:12:39.084Z,100124.77
2022-11-05T21:15:09.623Z,100129.09
2022-11-05T21:17:38.312Z,100127.66
2022-11-05T21:20:07.930Z,100128.11
2022-11-05T21:22:36.569Z,100126.69
2022-11-05T21:25:05.715Z,100132.67
2022-11-05T21:27:34.341Z,100136.52
2022-11-05T21:30:04.262Z,100140.73
2022-11-05T21:32:33.043Z,100137.07
2022-11-05T21:35:01.976Z,100142.20
2022-11-05T21:37:30.619Z,100140.90
2022-11-05T21:39:59.409Z,100138.48
2022-11-05T21:42:30.179Z,100138.66
2022-11-05T21:45:00.613Z,100137.54
2022-11-05T21:47:29.882Z,100138.41
2022-11-05T21:49:58.600Z,100133.44
2022-11-05T21:52:45.854Z,100135.73
2022-11-05T21:55:34.225Z,100136.90
2022-11-05T21:58:30.263Z,100141.16
2022-11-05T22:01:01.339Z,100145.14
2022-11-05T22:03:30.603Z,100142.32
2022-11-05T22:05:59.217Z,100143.58
2022-11-05T22:08:27.957Z,100143.64
2022-11-05T22:10:56.693Z,100141.63
2022-11-05T22:13:25.437Z,100142.26
2022-11-05T22:15:57.390Z,100145.08
2022-11-05T22:18:26.020Z,100144.05
2022-11-05T22:20:54.618Z,100143.48
2022-11-05T22:23:23.553Z,100148.02
2022-11-05T22:26:00.582Z,100149.44
2022-11-05T22:28:29.270Z,100146.94
2022-11-05T22:30:58.011Z,100145.88
2022-11-05T22:33:27.409Z,100148.77
2022-11-05T22:35:56.198Z,100145.63
2022-11-05T22:38:24.884Z,100147.46
2022-11-05T22:40:53.878Z,100148.09
2022-11-05T22:43:22.680Z,100145.48
2022-11-05T22:45:51.452Z,100146.77
2022-11-05T22:48:20.028Z,100147.83
2022-11-05T22:50:48.392Z,100148.79
2022-11-05T22:53:16.776Z,100150.72
2022-11-05T22:55:45.165Z,100148.95
2022-11-05T22:58:13.938Z,100149.45
2022-11-05T23:00:42.520Z,100152.14
2022-11-05T23:03:11.012Z,100148.52
2022-11-05T23:05:39.498Z,100150.85
2022-11-05T23:08:26.409Z,100151.05
2022-11-05T23:11:13.423Z,100154.14
2022-11-05T23:13:41.771Z,100157.98
2022-11-05T23:16:28.524Z,100154.60
2022-11-05T23:19:16.332Z,100150.45
2022-11-05T23:22:03.462Z,100151.95
2022-11-05T23:24:31.796Z,100159.27
2022-11-05T23:27:00.099Z,100161.30
2022-11-05T23:29:28.700Z,100158.05
2022-11-05T23:32:15.937Z,100160.84
2022-11-05T23:34:44.508Z,100158.20
2022-11-05T23:37:31.403Z,100160.60
2022-11-05T23:40:00.203Z,100154.54
2022-11-05T23:42:47.323Z,100160.62
2022-11-05T23:45:34.528Z,100166.44
2022-11-05T23:48:18.363Z,100165.58
2022-11-05T23:51:10.060Z,100164.79
2022-11-05T23:53:41.539Z,100167.34
2022-11-05T23:56:14.996Z,100168.38
2022-11-05T23:58:43.356Z,100161.80
